Yosho Maru — JD3964 — position and weather

sailwx.info

Track history (hours):
 
Tides and Currents Weather Stations Pressure Air Temp Water Temp Dewpoint Dewpoint Depression Visibility Wind Speed Wind Dir Waves Ship Positions

Yosho Maru

Last reported at 2017-Nov-13 02:01 UTC. Time now 2017-Nov-18 23:28 UTC.
Position N 35°20' E 139°43'.

Length 55 m; draft 4 m.

Type: Cargo ship. MMSI: 431007294.

Date/timePositionNaut miles runAvg speedWind from/ knotsBaromVisibWave heightAir tempDewpointWater temp
2017-Nov-13 02:01N 35°20' E 139°43'510.7
2017-Nov-13 01:31N 35°25' E 139°44'611.6
2017-Nov-13 01:01N 35°29' E 139°50'10 0.3
2017-Nov-11 18:52N 35°37' E 139°58'510.9
2017-Nov-11 18:27N 35°33' E 139°54'510.2
2017-Nov-11 17:58N 35°30' E 139°49'4 9.1
2017-Nov-11 17:30N 35°30' E 139°44'0 0.2
2017-Nov-11 17:01N 35°31' E 139°44'0 0.0
2017-Nov-11 16:30N 35°31' E 139°44'0 0.0
2017-Nov-11 16:00N 35°31' E 139°44'0 0.0
2017-Nov-11 15:31N 35°31' E 139°44'0 0.0
2017-Nov-11 15:00N 35°31' E 139°44'0 0.0
2017-Nov-11 14:30N 35°31' E 139°44'0 0.0
2017-Nov-11 14:00N 35°31' E 139°44'0 0.0
2017-Nov-11 13:31N 35°31' E 139°44'0 0.0
2017-Nov-11 13:01N 35°31' E 139°44'0 0.0
2017-Nov-11 12:30N 35°31' E 139°44'0 0.0
2017-Nov-11 12:00N 35°31' E 139°44'0 0.1
2017-Nov-11 11:31N 35°31' E 139°44'0 0.1
2017-Nov-11 11:01N 35°31' E 139°44'0 0.0
2017-Nov-11 10:31N 35°31' E 139°44'0 0.0
2017-Nov-11 10:01N 35°31' E 139°44'0 0.0
2017-Nov-11 09:31N 35°31' E 139°44'0 0.0
2017-Nov-11 09:01N 35°31' E 139°44'0 0.0
2017-Nov-11 08:30N 35°31' E 139°44'0 0.0
2017-Nov-11 08:00N 35°31' E 139°44'0 0.0
2017-Nov-11 07:30N 35°31' E 139°44'1 1.4
2017-Nov-11 07:00N 35°30' E 139°44'5 9.9
2017-Nov-11 06:30N 35°30' E 139°50'0 0.1
2017-Nov-11 06:00N 35°30' E 139°50'0 0.0
2017-Nov-11 05:31N 35°30' E 139°50'0 0.0
2017-Nov-11 05:01N 35°30' E 139°50'0 0.0
2017-Nov-11 04:31N 35°30' E 139°50'0 0.0
2017-Nov-11 04:01N 35°30' E 139°50'0 0.0
2017-Nov-11 03:30N 35°30' E 139°50'0 0.0
2017-Nov-11 03:00N 35°30' E 139°50'0 0.0
2017-Nov-11 02:31N 35°30' E 139°50'0 0.0
2017-Nov-11 01:58N 35°30' E 139°50'0 0.1
2017-Nov-11 01:30N 35°30' E 139°50'0 0.0
2017-Nov-11 00:56N 35°30' E 139°50'0 0.2
2017-Nov-11 00:30N 35°30' E 139°50'0 0.0
2017-Nov-10 23:58N 35°30' E 139°50'0 0.0
2017-Nov-10 23:28N 35°30' E 139°50'0 0.0
2017-Nov-10 23:00N 35°30' E 139°50'0 0.1
2017-Nov-10 22:29N 35°30' E 139°50'0 0.1
2017-Nov-10 22:00N 35°30' E 139°50'0 0.1
2017-Nov-10 21:24N 35°30' E 139°50'0 0.1
2017-Nov-10 20:53N 35°30' E 139°50'0 0.0
2017-Nov-10 20:30N 35°30' E 139°50'0 0.0
2017-Nov-10 20:00N 35°30' E 139°50'0 0.0
2017-Nov-10 19:30N 35°30' E 139°50'0 0.0
2017-Nov-10 18:57N 35°30' E 139°50'0 0.0
2017-Nov-10 18:30N 35°30' E 139°50'0 0.0
2017-Nov-10 18:00N 35°30' E 139°50'0 0.0
2017-Nov-10 17:30N 35°30' E 139°50'0 0.0
2017-Nov-10 16:59N 35°30' E 139°50'0 0.1
2017-Nov-10 16:28N 35°30' E 139°50'0 0.0
2017-Nov-10 16:01N 35°30' E 139°50'0 0.0
2017-Nov-10 15:31N 35°30' E 139°50'0 0.0
2017-Nov-10 15:01N 35°30' E 139°50'0 0.0
2017-Nov-10 14:28N 35°30' E 139°50'0 0.0
2017-Nov-10 14:01N 35°30' E 139°50'0 0.0
2017-Nov-10 13:30N 35°30' E 139°50'0 0.0
2017-Nov-10 13:01N 35°30' E 139°50'0 0.0
2017-Nov-10 12:30N 35°30' E 139°50'0 0.0
2017-Nov-10 11:54N 35°30' E 139°50'0 0.1
2017-Nov-10 11:30N 35°30' E 139°50'0 0.0
2017-Nov-10 11:01N 35°30' E 139°50'0 0.0
2017-Nov-10 10:31N 35°30' E 139°50'0 0.0
2017-Nov-10 10:01N 35°30' E 139°50'0 0.0
2017-Nov-10 09:30N 35°30' E 139°50'0 0.0
2017-Nov-10 09:01N 35°30' E 139°50'0 0.0
2017-Nov-10 08:30N 35°30' E 139°50'4 7.9
2017-Nov-10 08:00N 35°32' E 139°55'  
2017-Nov-07 18:24N 35°33' E 140°01'512.0
2017-Nov-07 18:00N 35°31' E 139°56'611.9
2017-Nov-07 17:30N 35°28' E 139°50'611.7
2017-Nov-07 17:00N 35°23' E 139°46'510.9
2017-Nov-07 16:30N 35°17' E 139°45'610.7
2017-Nov-07 15:54N 35°11' E 139°47'  
Track history (hours):
 
Tides and Currents Weather Stations Pressure Air Temp Water Temp Dewpoint Dewpoint Depression Visibility Wind Speed Wind Dir Waves Ship Positions

Yosho Maru

Last reported at 2017-Nov-13 02:01 UTC. Time now 2017-Nov-18 23:28 UTC.
Position N 35°20' E 139°43'.

Length 55 m; draft 4 m.

Type: Cargo ship. MMSI: 431007294.

Date/timePositionNaut miles runAvg speedWind from/ knotsBaromVisibWave heightAir tempDewpointWater temp
2017-Nov-13 02:01N 35°20' E 139°43'510.7
2017-Nov-13 01:31N 35°25' E 139°44'611.6
2017-Nov-13 01:01N 35°29' E 139°50'10 0.3
2017-Nov-11 18:52N 35°37' E 139°58'510.9
2017-Nov-11 18:27N 35°33' E 139°54'510.2
2017-Nov-11 17:58N 35°30' E 139°49'4 9.1
2017-Nov-11 17:30N 35°30' E 139°44'0 0.2
2017-Nov-11 17:01N 35°31' E 139°44'0 0.0
2017-Nov-11 16:30N 35°31' E 139°44'0 0.0
2017-Nov-11 16:00N 35°31' E 139°44'0 0.0
2017-Nov-11 15:31N 35°31' E 139°44'0 0.0
2017-Nov-11 15:00N 35°31' E 139°44'0 0.0
2017-Nov-11 14:30N 35°31' E 139°44'0 0.0
2017-Nov-11 14:00N 35°31' E 139°44'0 0.0
2017-Nov-11 13:31N 35°31' E 139°44'0 0.0
2017-Nov-11 13:01N 35°31' E 139°44'0 0.0
2017-Nov-11 12:30N 35°31' E 139°44'0 0.0
2017-Nov-11 12:00N 35°31' E 139°44'0 0.1
2017-Nov-11 11:31N 35°31' E 139°44'0 0.1
2017-Nov-11 11:01N 35°31' E 139°44'0 0.0
2017-Nov-11 10:31N 35°31' E 139°44'0 0.0
2017-Nov-11 10:01N 35°31' E 139°44'0 0.0
2017-Nov-11 09:31N 35°31' E 139°44'0 0.0
2017-Nov-11 09:01N 35°31' E 139°44'0 0.0
2017-Nov-11 08:30N 35°31' E 139°44'0 0.0
2017-Nov-11 08:00N 35°31' E 139°44'0 0.0
2017-Nov-11 07:30N 35°31' E 139°44'1 1.4
2017-Nov-11 07:00N 35°30' E 139°44'5 9.9
2017-Nov-11 06:30N 35°30' E 139°50'0 0.1
2017-Nov-11 06:00N 35°30' E 139°50'0 0.0
2017-Nov-11 05:31N 35°30' E 139°50'0 0.0
2017-Nov-11 05:01N 35°30' E 139°50'0 0.0
2017-Nov-11 04:31N 35°30' E 139°50'0 0.0
2017-Nov-11 04:01N 35°30' E 139°50'0 0.0
2017-Nov-11 03:30N 35°30' E 139°50'0 0.0
2017-Nov-11 03:00N 35°30' E 139°50'0 0.0
2017-Nov-11 02:31N 35°30' E 139°50'0 0.0
2017-Nov-11 01:58N 35°30' E 139°50'0 0.1
2017-Nov-11 01:30N 35°30' E 139°50'0 0.0
2017-Nov-11 00:56N 35°30' E 139°50'0 0.2
2017-Nov-11 00:30N 35°30' E 139°50'0 0.0
2017-Nov-10 23:58N 35°30' E 139°50'0 0.0
2017-Nov-10 23:28N 35°30' E 139°50'0 0.0
2017-Nov-10 23:00N 35°30' E 139°50'0 0.1
2017-Nov-10 22:29N 35°30' E 139°50'0 0.1
2017-Nov-10 22:00N 35°30' E 139°50'0 0.1
2017-Nov-10 21:24N 35°30' E 139°50'0 0.1
2017-Nov-10 20:53N 35°30' E 139°50'0 0.0
2017-Nov-10 20:30N 35°30' E 139°50'0 0.0
2017-Nov-10 20:00N 35°30' E 139°50'0 0.0
2017-Nov-10 19:30N 35°30' E 139°50'0 0.0
2017-Nov-10 18:57N 35°30' E 139°50'0 0.0
2017-Nov-10 18:30N 35°30' E 139°50'0 0.0
2017-Nov-10 18:00N 35°30' E 139°50'0 0.0
2017-Nov-10 17:30N 35°30' E 139°50'0 0.0
2017-Nov-10 16:59N 35°30' E 139°50'0 0.1
2017-Nov-10 16:28N 35°30' E 139°50'0 0.0
2017-Nov-10 16:01N 35°30' E 139°50'0 0.0
2017-Nov-10 15:31N 35°30' E 139°50'0 0.0
2017-Nov-10 15:01N 35°30' E 139°50'0 0.0
2017-Nov-10 14:28N 35°30' E 139°50'0 0.0
2017-Nov-10 14:01N 35°30' E 139°50'0 0.0
2017-Nov-10 13:30N 35°30' E 139°50'0 0.0
2017-Nov-10 13:01N 35°30' E 139°50'0 0.0
2017-Nov-10 12:30N 35°30' E 139°50'0 0.0
2017-Nov-10 11:54N 35°30' E 139°50'0 0.1
2017-Nov-10 11:30N 35°30' E 139°50'0 0.0
2017-Nov-10 11:01N 35°30' E 139°50'0 0.0
2017-Nov-10 10:31N 35°30' E 139°50'0 0.0
2017-Nov-10 10:01N 35°30' E 139°50'0 0.0
2017-Nov-10 09:30N 35°30' E 139°50'0 0.0
2017-Nov-10 09:01N 35°30' E 139°50'0 0.0
2017-Nov-10 08:30N 35°30' E 139°50'4 7.9
2017-Nov-10 08:00N 35°32' E 139°55'  
2017-Nov-07 18:24N 35°33' E 140°01'512.0
2017-Nov-07 18:00N 35°31' E 139°56'611.9
2017-Nov-07 17:30N 35°28' E 139°50'611.7
2017-Nov-07 17:00N 35°23' E 139°46'510.9
2017-Nov-07 16:30N 35°17' E 139°45'610.7
2017-Nov-07 15:54N 35°11' E 139°47'  

Dump ship's entire track history